Time;durP1;ratioP1;P1;durP2;ratioP2;P2;SDS_P1;SDS_P2;PMS_P1;PMS_P2;Temp;Humidity;BMP_temperature;BMP_pressure;BME280_temperature;BME280_humidity;BME280_pressure;Samples;Min_cycle;Max_cycle;Signal;HPM_P1;HPM_P2
2022/07/12 00:00:30;;;;;;;7.25;3.08;;;;;;;17.73;100.00;102326.06;5196245;28;20030;-72
2022/07/12 00:03:02;;;;;;;6.00;2.65;;;;;;;17.63;100.00;102325.22;5196427;28;20530;-72
2022/07/12 00:05:33;;;;;;;3.97;2.50;;;;;;;17.62;100.00;102327.06;5193663;28;20372;-72
2022/07/12 00:08:06;;;;;;;3.73;3.00;;;;;;;17.53;100.00;102319.91;5194538;28;20101;-72
2022/07/12 00:10:37;;;;;;;3.38;2.80;;;;;;;17.51;100.00;102313.94;5196211;28;20037;-72
2022/07/12 00:13:09;;;;;;;4.70;2.70;;;;;;;17.48;100.00;102307.09;5195480;28;20042;-72
2022/07/12 00:15:41;;;;;;;5.38;3.00;;;;;;;17.43;100.00;102306.69;5193127;28;20034;-72
2022/07/12 00:18:12;;;;;;;5.67;3.47;;;;;;;17.36;100.00;102297.63;5195673;28;20820;-72
2022/07/12 00:20:43;;;;;;;6.88;3.30;;;;;;;17.45;100.00;102299.41;5196071;28;20022;-72
2022/07/12 00:23:15;;;;;;;4.72;3.75;;;;;;;17.40;100.00;102290.22;5195259;28;20030;-72
2022/07/12 00:25:47;;;;;;;7.10;3.60;;;;;;;17.40;100.00;102299.00;5195317;28;20029;-72
2022/07/12 00:28:18;;;;;;;5.40;3.33;;;;;;;17.41;100.00;102305.16;5195378;28;20026;-72
2022/07/12 00:30:49;;;;;;;5.90;3.88;;;;;;;17.37;100.00;102311.69;5195686;28;21773;-72
2022/07/12 00:33:20;;;;;;;4.43;3.22;;;;;;;17.35;100.00;102310.97;5195289;28;20026;-72
2022/07/12 00:35:52;;;;;;;3.83;3.08;;;;;;;17.29;100.00;102314.22;5195593;28;20034;-72
2022/07/12 00:38:23;;;;;;;3.30;2.92;;;;;;;17.26;100.00;102313.50;5194777;28;20472;-72
2022/07/12 00:40:54;;;;;;;5.95;3.22;;;;;;;17.11;100.00;102304.28;5194703;28;20034;-72
2022/07/12 00:43:26;;;;;;;4.20;2.92;;;;;;;17.12;100.00;102311.28;5195573;28;20444;-72
2022/07/12 00:45:57;;;;;;;4.85;2.95;;;;;;;17.09;100.00;102303.59;5195600;28;20145;-72
2022/07/12 00:48:32;;;;;;;3.55;3.00;;;;;;;17.15;100.00;102310.13;5194708;28;20029;-72
2022/07/12 00:51:03;;;;;;;3.85;2.90;;;;;;;16.97;100.00;102304.66;5193861;28;20030;-72
2022/07/12 00:53:36;;;;;;;4.85;2.92;;;;;;;17.03;100.00;102306.78;5194646;28;20119;-72
2022/07/12 00:56:07;;;;;;;4.20;2.75;;;;;;;17.00;100.00;102297.28;5194584;28;20046;-72
2022/07/12 00:58:40;;;;;;;3.40;2.30;;;;;;;16.98;100.00;102304.53;5195045;28;20030;-72
2022/07/12 01:01:11;;;;;;;4.13;2.38;;;;;;;16.93;100.00;102300.63;5194970;28;20034;-72
2022/07/12 01:03:43;;;;;;;3.80;2.40;;;;;;;16.87;100.00;102301.19;5194615;28;20125;-72
2022/07/12 01:06:15;;;;;;;3.50;2.20;;;;;;;16.83;100.00;102305.91;5193528;28;20069;-72
2022/07/12 01:08:47;;;;;;;2.73;2.00;;;;;;;16.76;100.00;102300.31;5194981;28;20528;-72
2022/07/12 01:11:19;;;;;;;2.73;1.80;;;;;;;16.78;100.00;102303.66;5192964;28;20022;-72
2022/07/12 01:13:52;;;;;;;2.80;2.10;;;;;;;16.73;100.00;102308.50;5194747;28;20277;-72
2022/07/12 01:16:23;;;;;;;;;;;;;;;17.35;100.00;102309.19;5193095;28;20569;-72
2022/07/12 01:18:55;;;;;;;2.35;1.75;;;;;;;16.67;100.00;102308.19;5194430;28;19917;-72
2022/07/12 01:21:31;;;;;;;4.15;2.33;;;;;;;16.66;100.00;102312.63;5194931;28;20026;-72
2022/07/12 01:24:04;;;;;;;2.50;2.30;;;;;;;16.54;100.00;102314.53;5193577;28;20152;-72
2022/07/12 01:26:36;;;;;;;4.07;2.10;;;;;;;16.53;100.00;102309.41;5193701;28;20026;-72
2022/07/12 01:29:08;;;;;;;2.83;2.38;;;;;;;16.47;100.00;102321.31;5194894;28;20015;-72
2022/07/12 01:31:39;;;;;;;3.23;2.23;;;;;;;16.43;100.00;102313.78;5194860;28;20046;-72
2022/07/12 01:34:11;;;;;;;3.20;2.25;;;;;;;16.33;100.00;102320.84;5194609;28;20472;-72
2022/07/12 01:36:42;;;;;;;4.32;2.33;;;;;;;16.34;100.00;102314.59;5193202;28;20514;-71
2022/07/12 01:39:13;;;;;;;3.65;1.98;;;;;;;16.37;100.00;102317.00;5192996;28;20475;-72
2022/07/12 01:41:45;;;;;;;3.25;2.30;;;;;;;16.32;100.00;102319.16;5194630;28;20026;-72
2022/07/12 01:44:16;;;;;;;3.78;2.40;;;;;;;16.22;100.00;102314.69;5193957;28;20034;-72
2022/07/12 01:46:47;;;;;;;2.63;2.00;;;;;;;16.29;100.00;102322.94;5194355;28;20026;-72
2022/07/12 01:49:18;;;;;;;4.05;1.90;;;;;;;16.23;100.00;102318.16;5194398;28;20543;-72
2022/07/12 01:51:50;;;;;;;2.83;2.40;;;;;;;16.22;100.00;102309.41;5194247;28;20439;-72
2022/07/12 01:54:23;;;;;;;4.38;2.15;;;;;;;16.23;100.00;102313.72;5193333;28;20034;-72
2022/07/12 01:56:54;;;;;;;;;;;;;;;16.82;100.00;102308.66;5194601;28;20033;-72
2022/07/12 01:59:26;;;;;;;4.00;2.15;;;;;;;16.20;100.00;102316.59;5194358;28;20391;-72
2022/07/12 02:01:58;;;;;;;3.45;2.50;;;;;;;16.11;100.00;102301.53;5193596;28;20037;-72
2022/07/12 02:04:29;;;;;;;3.63;2.38;;;;;;;16.13;100.00;102302.22;5193600;28;20494;-72
2022/07/12 02:07:01;;;;;;;4.68;2.38;;;;;;;16.12;100.00;102305.84;5194206;28;20098;-72
2022/07/12 02:09:32;;;;;;;5.93;2.58;;;;;;;16.11;100.00;102303.34;5194418;28;20080;-71
2022/07/12 02:12:04;;;;;;;6.72;2.42;;;;;;;16.06;100.00;102309.00;5191267;28;20117;-72
2022/07/12 02:14:35;;;;;;;4.63;2.40;;;;;;;16.06;100.00;102306.34;5194416;28;20498;-72
2022/07/12 02:17:07;;;;;;;3.45;2.70;;;;;;;16.03;100.00;102309.28;5196093;28;20030;-72
2022/07/12 02:19:38;;;;;;;4.85;2.58;;;;;;;15.98;100.00;102301.72;5198458;28;20454;-72
2022/07/12 02:22:09;;;;;;;4.25;2.90;;;;;;;15.95;100.00;102287.97;5198370;28;20272;-72
2022/07/12 02:24:41;;;;;;;3.78;2.60;;;;;;;15.89;100.00;102291.94;5196833;28;20052;-72
2022/07/12 02:27:12;;;;;;;3.17;2.58;;;;;;;15.94;100.00;102300.31;5198130;28;20435;-72
2022/07/12 02:29:43;;;;;;;2.78;2.40;;;;;;;15.92;100.00;102298.78;5199040;28;20058;-72
2022/07/12 02:32:15;;;;;;;4.47;2.47;;;;;;;15.88;100.00;102305.28;5197751;28;20038;-72
2022/07/12 02:34:46;;;;;;;4.03;2.45;;;;;;;15.90;100.00;102306.00;5198663;28;20022;-72
2022/07/12 02:37:17;;;;;;;4.10;2.40;;;;;;;15.82;100.00;102307.47;5198587;28;20149;-72
2022/07/12 02:39:49;;;;;;;2.53;2.03;;;;;;;15.78;100.00;102311.34;5197525;28;20033;-72
2022/07/12 02:42:20;;;;;;;4.10;2.40;;;;;;;15.76;100.00;102313.28;5197328;28;20030;-72
2022/07/12 02:44:51;;;;;;;4.10;2.35;;;;;;;15.75;100.00;102303.66;5198132;28;20395;-72
2022/07/12 02:47:23;;;;;;;4.70;2.22;;;;;;;15.73;100.00;102310.91;5197789;28;20407;-72
2022/07/12 02:49:54;;;;;;;3.00;2.40;;;;;;;15.76;100.00;102315.09;5196854;28;20042;-71
2022/07/12 02:52:25;;;;;;;3.10;2.13;;;;;;;15.63;100.00;102317.88;5197511;28;20036;-72
2022/07/12 02:54:56;;;;;;;3.88;2.17;;;;;;;15.62;100.00;102313.56;5197656;28;20024;-72
2022/07/12 02:57:28;;;;;;;3.00;2.10;;;;;;;15.62;100.00;102308.28;5196529;28;20031;-72
2022/07/12 02:59:59;;;;;;;3.17;2.40;;;;;;;15.59;100.00;102308.53;5196439;28;20033;-72
2022/07/12 03:02:31;;;;;;;5.07;2.65;;;;;;;15.57;100.00;102307.81;5197410;28;20036;-72
2022/07/12 03:05:03;;;;;;;2.78;2.20;;;;;;;15.56;100.00;102308.78;5196955;28;20022;-72
2022/07/12 03:07:34;;;;;;;3.47;2.40;;;;;;;15.54;100.00;102302.78;5196659;28;20030;-70
2022/07/12 03:10:06;;;;;;;3.33;2.25;;;;;;;15.53;100.00;102307.25;5197498;28;20026;-71
2022/07/12 03:12:38;;;;;;;4.18;2.70;;;;;;;15.46;100.00;102302.59;5196480;28;20392;-71
2022/07/12 03:15:09;;;;;;;3.05;2.25;;;;;;;15.47;100.00;102298.97;5196050;28;20031;-71
2022/07/12 03:17:41;;;;;;;3.50;2.70;;;;;;;15.47;100.00;102304.25;5196639;28;20168;-71
2022/07/12 03:20:14;;;;;;;3.10;2.45;;;;;;;15.39;100.00;102304.88;5197166;28;20027;-72
2022/07/12 03:22:48;;;;;;;3.08;2.50;;;;;;;15.43;100.00;102308.13;5207723;28;20033;-72
2022/07/12 03:25:24;;;;;;;4.97;2.63;;;;;;;15.42;100.00;102295.84;5196800;28;20514;-72
2022/07/12 03:27:55;;;;;;;3.72;2.70;;;;;;;15.39;100.00;102304.06;5195871;28;20113;-72
2022/07/12 03:30:27;;;;;;;4.43;2.80;;;;;;;15.38;100.00;102303.22;5195547;28;20113;-72
2022/07/12 03:32:58;;;;;;;5.50;2.53;;;;;;;15.33;100.00;102289.53;5195962;28;20046;-72
2022/07/12 03:35:30;;;;;;;3.83;2.65;;;;;;;15.32;100.00;102299.25;5196803;28;20073;-72
2022/07/12 03:38:02;;;;;;;4.45;3.30;;;;;;;15.33;100.00;102300.94;5195467;28;20341;-72
2022/07/12 03:40:34;;;;;;;4.70;3.38;;;;;;;15.32;100.00;102317.75;5196569;28;20030;-72
2022/07/12 03:43:05;;;;;;;4.05;2.70;;;;;;;15.33;100.00;102313.31;5196775;28;20384;-72
2022/07/12 03:45:36;;;;;;;3.95;2.53;;;;;;;15.29;100.00;102311.88;5196581;28;20473;-71
2022/07/12 03:48:08;;;;;;;3.35;2.25;;;;;;;15.27;100.00;102313.81;5207810;28;20373;-71
2022/07/12 03:50:39;;;;;;;4.30;2.47;;;;;;;15.25;100.00;102311.28;5197118;28;20480;-71
2022/07/12 03:53:11;;;;;;;2.78;2.40;;;;;;;15.23;100.00;102317.66;5196600;28;20030;-71
2022/07/12 03:55:42;;;;;;;3.47;2.40;;;;;;;15.29;100.00;102317.16;5195871;28;20084;-71
2022/07/12 03:58:13;;;;;;;5.28;2.75;;;;;;;15.19;100.00;102319.72;5196238;28;20491;-71
2022/07/12 04:00:45;;;;;;;5.30;2.90;;;;;;;15.15;100.00;102315.63;5196325;28;20404;-71
2022/07/12 04:03:16;;;;;;;3.28;2.47;;;;;;;15.14;100.00;102311.31;5195259;28;20022;-71
2022/07/12 04:05:47;;;;;;;3.10;2.67;;;;;;;15.21;100.00;102312.50;5196388;28;20030;-71
2022/07/12 04:08:18;;;;;;;3.50;2.80;;;;;;;15.16;100.00;102303.28;5195157;28;20105;-71
2022/07/12 04:10:50;;;;;;;3.53;2.65;;;;;;;15.12;100.00;102292.13;5196597;28;20672;-72
2022/07/12 04:13:21;;;;;;;3.88;2.30;;;;;;;15.20;100.00;102295.00;5195093;28;20093;-72
2022/07/12 04:15:52;;;;;;;4.93;2.72;;;;;;;15.20;100.00;102307.34;5195860;28;20026;-71
2022/07/12 04:18:24;;;;;;;4.22;2.65;;;;;;;15.22;100.00;102305.41;5196302;28;20072;-72
2022/07/12 04:20:55;;;;;;;3.38;2.60;;;;;;;15.22;100.00;102314.16;5193948;28;20494;-71
2022/07/12 04:23:26;;;;;;;4.25;2.65;;;;;;;15.25;100.00;102311.28;5204337;28;20077;-71
2022/07/12 04:25:58;;;;;;;4.18;2.75;;;;;;;15.14;100.00;102319.22;5195782;28;20018;-71
2022/07/12 04:28:30;;;;;;;4.53;3.15;;;;;;;15.17;100.00;102315.53;5195686;28;20101;-72
2022/07/12 04:31:02;;;;;;;4.80;3.80;;;;;;;15.20;100.00;102316.13;5195179;28;20053;-72
2022/07/12 04:33:33;;;;;;;4.43;3.20;;;;;;;15.18;100.00;102315.38;5195681;28;20045;-71
2022/07/12 04:36:05;;;;;;;7.93;4.03;;;;;;;15.25;100.00;102319.22;5195202;28;20034;-71
2022/07/12 04:38:36;;;;;;;4.90;3.95;;;;;;;15.27;100.00;102324.38;5195752;28;20034;-71
2022/07/12 04:41:08;;;;;;;4.47;3.38;;;;;;;15.31;100.00;102320.53;5195700;28;20046;-71
2022/07/12 04:43:39;;;;;;;5.88;4.00;;;;;;;15.38;100.00;102324.34;5195544;28;20053;-71
2022/07/12 04:46:11;;;;;;;4.70;3.60;;;;;;;15.43;100.00;102323.97;5195518;28;20050;-71
2022/07/12 04:48:42;;;;;;;5.07;3.47;;;;;;;15.47;100.00;102322.75;5194078;28;20030;-71
2022/07/12 04:51:15;;;;;;;4.25;3.83;;;;;;;15.60;100.00;102326.03;5194461;28;20105;-70
2022/07/12 04:53:46;;;;;;;5.75;3.65;;;;;;;15.61;100.00;102322.44;5196189;28;20030;-70
2022/07/12 04:56:17;;;;;;;4.38;3.97;;;;;;;15.65;100.00;102329.19;5195113;28;20023;-70
2022/07/12 04:58:49;;;;;;;5.82;4.30;;;;;;;15.70;100.00;102327.00;5194113;28;20030;-70
2022/07/12 05:01:20;;;;;;;8.18;4.55;;;;;;;15.79;100.00;102328.84;5194903;28;20117;-70
2022/07/12 05:03:52;;;;;;;6.40;4.28;;;;;;;15.80;100.00;102333.19;5194838;28;20065;-71
2022/07/12 05:06:23;;;;;;;6.00;4.88;;;;;;;15.90;100.00;102327.97;5193965;28;20048;-71
2022/07/12 05:08:55;;;;;;;6.15;4.80;;;;;;;15.97;100.00;102325.66;5194148;28;20518;-71
2022/07/12 05:11:26;;;;;;;8.07;4.45;;;;;;;16.07;100.00;102326.56;5195257;28;20070;-71
2022/07/12 05:13:58;;;;;;;6.68;4.43;;;;;;;16.12;100.00;102337.56;5194529;28;20310;-71
2022/07/12 05:16:30;;;;;;;7.78;5.18;;;;;;;16.20;100.00;102336.94;5194498;28;20092;-71
2022/07/12 05:19:02;;;;;;;7.10;4.60;;;;;;;16.26;100.00;102339.06;5194630;28;20033;-71
2022/07/12 05:21:34;;;;;;;8.52;5.40;;;;;;;16.38;100.00;102348.59;5195106;28;20026;-71
2022/07/12 05:24:06;;;;;;;7.15;4.43;;;;;;;16.47;100.00;102355.72;5192522;28;20534;-71
2022/07/12 05:26:37;;;;;;;6.75;4.70;;;;;;;16.53;100.00;102357.00;5195508;28;20060;-71
2022/07/12 05:29:09;;;;;;;6.03;5.22;;;;;;;16.59;100.00;102356.47;5194570;28;20057;-71
2022/07/12 05:31:40;;;;;;;7.18;6.18;;;;;;;16.63;100.00;102363.19;5194780;28;20050;-71
2022/07/12 05:34:12;;;;;;;7.50;6.80;;;;;;;16.74;100.00;102365.78;5193965;28;20041;-71
2022/07/12 05:36:43;;;;;;;7.50;6.78;;;;;;;16.80;100.00;102368.84;5194403;28;20030;-70
2022/07/12 05:39:14;;;;;;;7.68;6.35;;;;;;;16.80;100.00;102364.41;5194639;28;20024;-71
2022/07/12 05:41:48;;;;;;;8.95;8.00;;;;;;;16.93;100.00;102372.97;5192399;28;20121;-72
2022/07/12 05:44:20;;;;;;;9.25;8.40;;;;;;;17.02;100.00;102385.38;5194969;28;20057;-71
2022/07/12 05:46:51;;;;;;;9.68;8.77;;;;;;;17.05;100.00;102383.41;5194491;28;20069;-71
2022/07/12 05:49:22;;;;;;;10.68;9.05;;;;;;;17.20;100.00;102382.94;5194110;28;20026;-71
2022/07/12 05:54:43;;;;;;;11.13;10.10;;;;;;;17.44;100.00;102392.31;5194832;28;20042;-71
2022/07/12 05:57:15;;;;;;;12.15;11.15;;;;;;;17.52;100.00;102400.41;5192207;28;20030;-71
2022/07/12 05:59:47;;;;;;;12.97;11.67;;;;;;;17.61;100.00;102402.22;5194516;28;20033;-71
2022/07/12 06:02:18;;;;;;;13.65;12.43;;;;;;;17.76;100.00;102397.38;5194547;28;20026;-71
2022/07/12 06:04:49;;;;;;;12.27;11.15;;;;;;;17.86;100.00;102392.91;5194337;28;20049;-71
2022/07/12 06:07:24;;;;;;;13.02;11.77;;;;;;;18.07;100.00;102397.22;5193243;28;20042;-71
2022/07/12 06:09:55;;;;;;;12.75;11.48;;;;;;;17.96;100.00;102396.41;5194106;28;20031;-71
2022/07/12 06:12:27;;;;;;;12.52;11.32;;;;;;;18.17;100.00;102395.41;5193416;28;20026;-71
2022/07/12 06:14:58;;;;;;;13.10;11.05;;;;;;;18.35;100.00;102401.66;5193195;28;20030;-71
2022/07/12 06:17:32;;;;;;;12.13;10.93;;;;;;;18.46;100.00;102403.31;5194571;28;20528;-71
2022/07/12 06:20:04;;;;;;;11.93;10.70;;;;;;;18.57;100.00;102395.16;5194072;28;20030;-71
2022/07/12 06:22:35;;;;;;;11.32;10.27;;;;;;;18.75;100.00;102397.06;5194521;28;20041;-71
2022/07/12 06:25:07;;;;;;;11.02;10.02;;;;;;;18.92;100.00;102398.97;5192898;28;20026;-71
2022/07/12 06:27:39;;;;;;;10.85;9.85;;;;;;;19.07;100.00;102402.81;5194140;28;20069;-71
2022/07/12 06:30:10;;;;;;;11.80;10.70;;;;;;;19.25;100.00;102402.03;5193217;28;20574;-71
2022/07/12 06:32:43;;;;;;;9.70;8.90;;;;;;;19.39;100.00;102401.50;5193276;28;20454;-71
2022/07/12 06:35:15;;;;;;;10.07;9.10;;;;;;;19.46;100.00;102399.91;5193940;28;20581;-71
2022/07/12 06:37:46;;;;;;;9.57;8.67;;;;;;;19.60;100.00;102401.22;5192660;28;20034;-72
2022/07/12 06:40:17;;;;;;;8.43;7.70;;;;;;;19.77;100.00;102402.22;5193917;28;20114;-71
2022/07/12 06:42:49;;;;;;;9.27;8.38;;;;;;;19.93;100.00;102399.72;5193527;28;20350;-72
2022/07/12 06:45:20;;;;;;;9.43;8.53;;;;;;;20.14;100.00;102400.22;5192995;28;20057;-72
2022/07/12 06:47:52;;;;;;;10.00;8.27;;;;;;;20.29;100.00;102407.63;5193144;28;20031;-73
2022/07/12 06:50:23;;;;;;;11.03;8.33;;;;;;;20.33;100.00;102406.31;5193945;28;20030;-72
2022/07/12 06:52:55;;;;;;;8.10;7.30;;;;;;;20.54;100.00;102409.50;5194176;28;20026;-72
2022/07/12 06:55:26;;;;;;;10.30;8.70;;;;;;;20.66;100.00;102410.06;5193855;28;20031;-72
2022/07/12 06:57:57;;;;;;;7.60;6.97;;;;;;;20.79;100.00;102413.09;5192515;28;20088;-72
2022/07/12 07:00:29;;;;;;;8.53;7.73;;;;;;;20.92;100.00;102412.69;5192983;28;20030;-72
2022/07/12 07:03:00;;;;;;;9.53;8.57;;;;;;;21.10;100.00;102400.09;5194443;28;20022;-72
2022/07/12 07:05:31;;;;;;;8.80;7.90;;;;;;;21.19;100.00;102405.47;5197831;28;20041;-72
2022/07/12 07:08:03;;;;;;;10.60;7.43;;;;;;;21.45;100.00;102411.56;5196304;28;20019;-72
2022/07/12 07:10:34;;;;;;;9.47;8.03;;;;;;;21.49;100.00;102399.56;5197091;28;20026;-72
2022/07/12 07:13:07;;;;;;;10.60;8.17;;;;;;;21.62;100.00;102402.56;5197216;28;20033;-72
2022/07/12 07:15:40;;;;;;;9.88;8.00;;;;;;;21.79;100.00;102413.28;5196750;28;20554;-73
2022/07/12 07:18:11;;;;;;;;;;;;;;;22.34;100.00;102405.41;5196797;28;20042;-73
2022/07/12 07:20:42;;;;;;;12.23;6.53;;;;;;;22.02;100.00;102408.94;5196931;28;20371;-72
2022/07/12 07:23:16;;;;;;;7.47;6.37;;;;;;;22.21;100.00;102409.63;5197276;28;20135;-72
2022/07/12 07:25:47;;;;;;;9.32;6.70;;;;;;;22.37;100.00;102403.41;5195794;28;20025;-72
2022/07/12 07:28:19;;;;;;;7.80;6.43;;;;;;;22.53;100.00;102404.19;5195862;28;20034;-72
2022/07/12 07:30:53;;;;;;;7.53;5.67;;;;;;;22.75;100.00;102399.94;5196560;28;20030;-72
2022/07/12 07:33:25;;;;;;;5.60;4.40;;;;;;;22.84;100.00;102406.09;5203135;28;20030;-73
2022/07/12 07:35:56;;;;;;;4.63;4.20;;;;;;;22.93;100.00;102404.28;5196620;28;20053;-72
2022/07/12 07:38:27;;;;;;;5.43;4.10;;;;;;;23.03;100.00;102407.53;5196796;28;20506;-73
2022/07/12 07:40:59;;;;;;;4.40;3.77;;;;;;;23.08;100.00;102393.69;5196830;28;20030;-73
2022/07/12 07:43:30;;;;;;;4.67;3.90;;;;;;;23.17;100.00;102405.97;5196175;28;20403;-73
2022/07/12 07:46:02;;;;;;;6.07;4.07;;;;;;;23.11;100.00;102391.50;5196455;28;20471;-72
2022/07/12 07:48:33;;;;;;;4.90;3.97;;;;;;;23.15;100.00;102392.81;5196026;28;20026;-73
2022/07/12 07:51:04;;;;;;;4.43;3.57;;;;;;;23.21;100.00;102393.94;5195929;28;20394;-72
2022/07/12 07:53:36;;;;;;;4.50;3.63;;;;;;;23.24;100.00;102393.56;5196504;28;20034;-73
2022/07/12 07:56:07;;;;;;;6.30;4.23;;;;;;;23.44;100.00;102391.28;5196242;28;20026;-73
2022/07/12 07:58:38;;;;;;;3.80;3.03;;;;;;;23.59;100.00;102394.00;5196452;28;20026;-73
2022/07/12 08:01:10;;;;;;;3.90;3.60;;;;;;;23.61;100.00;102392.00;5195708;28;20033;-73
2022/07/12 08:03:41;;;;;;;3.47;3.17;;;;;;;23.81;100.00;102389.69;5196434;28;20113;-73
2022/07/12 08:06:12;;;;;;;6.00;3.03;;;;;;;23.85;100.00;102389.16;5196073;28;20041;-73
2022/07/12 08:08:43;;;;;;;3.77;2.60;;;;;;;24.06;100.00;102401.03;5195059;28;20054;-73
2022/07/12 08:11:15;;;;;;;3.93;3.30;;;;;;;23.98;100.00;102397.41;5196213;28;20026;-73
2022/07/12 08:13:46;;;;;;;5.50;3.13;;;;;;;24.07;100.00;102410.72;5195720;28;20034;-73
2022/07/12 08:16:17;;;;;;;5.43;3.70;;;;;;;23.96;100.00;102401.28;5195460;28;20042;-73
2022/07/12 08:18:49;;;;;;;5.93;3.20;;;;;;;24.08;100.00;102396.31;5196061;28;20026;-73
2022/07/12 08:21:20;;;;;;;4.27;3.30;;;;;;;24.11;100.00;102398.63;5194570;28;20113;-73
2022/07/12 08:23:53;;;;;;;4.90;3.50;;;;;;;24.23;100.00;102392.66;5196337;28;20030;-73
2022/07/12 08:26:24;;;;;;;4.22;3.50;;;;;;;24.28;100.00;102397.44;5195171;28;20084;-73
2022/07/12 08:28:55;;;;;;;4.37;3.20;;;;;;;24.26;100.00;102391.44;5195651;28;20019;-73
2022/07/12 08:31:27;;;;;;;5.87;4.00;;;;;;;24.22;99.59;102398.19;5195675;28;20062;-73
2022/07/12 08:33:58;;;;;;;4.83;3.47;;;;;;;24.44;99.92;102407.22;5195554;28;20026;-73
2022/07/12 08:36:29;;;;;;;3.77;3.20;;;;;;;24.51;98.58;102411.66;5192591;28;20080;-73
2022/07/12 08:39:00;;;;;;;5.20;3.07;;;;;;;24.50;99.24;102412.66;5206255;28;20034;-73
2022/07/12 08:41:32;;;;;;;4.43;3.40;;;;;;;24.50;97.21;102411.81;5195411;28;20057;-73
2022/07/12 08:44:03;;;;;;;3.53;3.03;;;;;;;24.56;99.65;102415.63;5193574;28;20048;-73
2022/07/12 08:46:34;;;;;;;4.20;3.80;;;;;;;24.43;96.17;102413.56;5195030;28;20387;-73
2022/07/12 08:49:09;;;;;;;4.50;3.93;;;;;;;24.47;97.52;102418.41;5195402;28;20030;-73
2022/07/12 08:51:41;;;;;;;5.70;3.95;;;;;;;24.40;98.07;102414.78;5194533;28;20030;-73
2022/07/12 08:54:15;;;;;;;3.77;3.33;;;;;;;24.49;97.54;102419.03;5194959;28;20026;-73
2022/07/12 08:56:47;;;;;;;3.78;2.92;;;;;;;24.52;95.27;102424.03;5194884;28;20303;-73
2022/07/12 08:59:20;;;;;;;4.17;3.67;;;;;;;24.86;95.79;102430.69;5195160;28;20026;-73
2022/07/12 09:01:53;;;;;;;6.03;3.67;;;;;;;24.95;93.47;102434.06;5194806;28;20034;-73
2022/07/12 09:04:27;;;;;;;3.92;3.50;;;;;;;24.94;92.89;102425.22;5195132;28;20023;-73
2022/07/12 09:07:13;;;;;;;4.63;3.95;;;;;;;25.40;93.96;102427.63;5194304;28;20587;-73
2022/07/12 09:09:44;;;;;;;4.22;3.10;;;;;;;25.55;93.68;102424.06;5195216;28;20058;-74
2022/07/12 09:12:22;;;;;;;4.60;3.47;;;;;;;25.67;89.65;102430.59;5194467;28;20171;-72
2022/07/12 09:14:53;;;;;;;4.70;3.80;;;;;;;25.70;85.89;102427.53;5192939;28;20050;-73
2022/07/12 09:17:25;;;;;;;4.90;3.67;;;;;;;25.75;87.43;102413.50;5194561;28;20105;-73
2022/07/12 09:19:57;;;;;;;5.73;4.57;;;;;;;25.70;86.39;102425.66;5194282;28;20026;-73
2022/07/12 09:22:28;;;;;;;5.57;3.83;;;;;;;25.72;86.66;102409.34;5194151;28;20022;-73
2022/07/12 09:25:15;;;;;;;3.90;3.43;;;;;;;26.10;88.53;102414.44;5194077;28;20494;-73
2022/07/12 09:27:54;;;;;;;4.68;3.20;;;;;;;26.31;85.35;102409.03;5194498;28;20024;-73
2022/07/12 09:30:28;;;;;;;4.45;3.88;;;;;;;26.28;83.37;102409.41;5194569;28;20026;-70
2022/07/12 09:36:07;;;;;;;3.60;3.30;;;;;;;26.67;84.31;102406.19;5194081;28;20046;-71
2022/07/12 09:39:00;;;;;;;3.85;3.45;;;;;;;26.88;86.22;102393.66;5194458;28;20384;-71
2022/07/12 09:41:33;;;;;;;4.25;3.10;;;;;;;26.69;81.41;102411.34;5193375;28;20041;-72
2022/07/12 09:44:05;;;;;;;;;;;;;;;27.42;79.98;102409.75;5194766;28;20068;-72
2022/07/12 09:46:37;;;;;;;3.83;3.53;;;;;;;26.73;79.50;102407.22;5194221;28;19913;-71
2022/07/12 09:49:10;;;;;;;4.60;3.63;;;;;;;26.65;78.98;102410.09;5193510;28;20871;-71
2022/07/12 09:51:43;;;;;;;3.58;2.83;;;;;;;26.72;81.79;102404.75;5194481;28;20034;-71
2022/07/12 09:54:22;;;;;;;3.67;2.90;;;;;;;26.90;79.91;102399.66;5192623;28;20088;-71
2022/07/12 09:56:56;;;;;;;4.43;3.38;;;;;;;27.06;76.20;102399.31;5191811;28;20026;-71
2022/07/12 09:59:29;;;;;;;4.45;3.30;;;;;;;27.11;76.49;102398.72;5194178;28;20440;-71
2022/07/12 10:02:00;;;;;;;;;;;;;;;27.86;76.04;102402.19;5195180;28;20439;-71
2022/07/12 10:04:32;;;;;;;5.07;2.07;;;;;;;27.41;74.44;102391.13;5194569;28;19917;-71
2022/07/12 10:07:04;;;;;;;5.45;2.22;;;;;;;27.46;70.63;102399.41;5192560;28;20027;-72
2022/07/12 10:09:36;;;;;;;3.27;2.50;;;;;;;27.54;71.34;102403.78;5193744;28;20030;-72
2022/07/12 10:12:15;;;;;;;3.58;3.28;;;;;;;27.64;71.01;102396.13;5194490;28;20046;-72
2022/07/12 10:14:51;;;;;;;4.32;2.90;;;;;;;27.58;70.76;102383.50;5193500;28;20039;-71
2022/07/12 10:17:24;;;;;;;2.65;2.15;;;;;;;27.79;67.83;102386.00;5193537;28;20058;-72
2022/07/12 10:20:22;;;;;;;2.88;2.45;;;;;;;28.25;67.30;102382.44;5194004;28;20076;-71
2022/07/12 10:22:55;;;;;;;2.30;2.10;;;;;;;28.16;66.30;102381.03;5193365;28;20034;-71
2022/07/12 10:25:32;;;;;;;3.70;2.70;;;;;;;28.21;66.09;102375.00;5193749;28;20034;-72
2022/07/12 10:28:03;;;;;;;3.13;2.13;;;;;;;28.45;63.84;102378.88;5194365;28;20492;-72
2022/07/12 10:30:47;;;;;;;3.20;2.90;;;;;;;28.30;63.80;102382.66;5193980;28;20037;-72
2022/07/12 10:33:21;;;;;;;2.97;2.60;;;;;;;28.21;64.76;102383.91;5194107;28;20058;-72
2022/07/12 10:35:59;;;;;;;5.00;3.50;;;;;;;28.41;64.88;102383.06;5194210;28;20030;-72
2022/07/12 10:38:30;;;;;;;4.20;3.13;;;;;;;28.39;64.15;102377.88;5197594;28;20064;-72
2022/07/12 10:41:24;;;;;;;4.50;3.37;;;;;;;28.88;63.61;102381.03;5197094;28;20042;-72
2022/07/12 10:44:05;;;;;;;4.25;2.88;;;;;;;28.79;67.17;102383.13;5198520;28;20120;-72
2022/07/12 10:46:37;;;;;;;3.35;2.40;;;;;;;28.70;62.97;102381.72;5197803;28;20041;-72
2022/07/12 10:49:25;;;;;;;;;;;;;;;29.55;62.29;102377.72;5192873;28;20566;-72
2022/07/12 10:52:12;;;;;;;5.78;2.30;;;;;;;29.20;61.05;102377.34;5197494;28;19952;-72
2022/07/12 10:54:55;;;;;;;3.38;1.80;;;;;;;29.05;53.20;102382.19;5195840;28;20046;-72
2022/07/12 10:57:39;;;;;;;4.00;2.10;;;;;;;29.34;54.14;102378.91;5196072;28;20117;-72
2022/07/12 11:00:12;;;;;;;2.90;2.15;;;;;;;29.37;53.13;102376.84;5197236;28;20049;-72
2022/07/12 11:02:43;;;;;;;3.40;2.00;;;;;;;29.37;54.50;102379.53;5197692;28;20034;-72
2022/07/12 11:05:15;;;;;;;3.07;2.17;;;;;;;29.46;53.99;102380.91;5197425;28;20027;-72
2022/07/12 11:07:47;;;;;;;2.53;2.13;;;;;;;29.34;55.20;102383.47;5196178;28;20435;-72
2022/07/12 11:10:20;;;;;;;;;;;;;;;30.13;55.30;102390.13;5197585;28;20084;-71
2022/07/12 11:12:51;;;;;;;3.63;2.05;;;;;;;29.51;54.66;102373.81;5196446;28;19918;-71
2022/07/12 11:15:22;;;;;;;2.90;2.33;;;;;;;29.55;53.85;102371.50;5196000;28;20053;-71
2022/07/12 11:17:54;;;;;;;2.97;2.40;;;;;;;29.60;48.94;102371.69;5196862;28;20039;-71
2022/07/12 11:20:28;;;;;;;3.40;2.07;;;;;;;29.82;50.19;102369.44;5197153;28;20030;-71
2022/07/12 11:22:59;;;;;;;2.83;2.20;;;;;;;29.83;49.05;102372.97;5196222;28;20077;-71
2022/07/12 11:25:31;;;;;;;3.90;2.40;;;;;;;29.76;49.03;102367.59;5196978;28;20018;-71
2022/07/12 11:28:04;;;;;;;6.57;2.77;;;;;;;30.00;50.76;102360.50;5196193;28;20435;-71
2022/07/12 11:30:35;;;;;;;2.55;2.20;;;;;;;30.34;51.47;102361.03;5196663;28;20037;-72
2022/07/12 11:33:06;;;;;;;3.77;2.57;;;;;;;30.14;51.01;102355.81;5196480;28;20477;-71
2022/07/12 11:35:38;;;;;;;3.33;2.57;;;;;;;30.11;48.04;102362.47;5196232;28;20038;-71
2022/07/12 11:38:10;;;;;;;3.30;2.70;;;;;;;30.10;48.18;102357.31;5197111;28;20058;-71
2022/07/12 11:40:41;;;;;;;3.90;2.20;;;;;;;30.22;47.23;102359.06;5196597;28;20054;-72
2022/07/12 11:43:12;;;;;;;4.07;2.30;;;;;;;30.06;45.17;102359.63;5196035;28;20118;-71
2022/07/12 11:45:43;;;;;;;2.73;2.13;;;;;;;30.08;47.68;102346.75;5196283;28;20102;-72
2022/07/12 11:48:16;;;;;;;2.50;1.93;;;;;;;30.04;47.51;102350.91;5195857;28;20026;-71